sensor_id;sensor_type;location;lat;lon;timestamp;P1;durP1;ratioP1;P2;durP2;ratioP2
73841;SDS011;62184;52.006;5.924;2023-06-22T00:01:00;10.17;;;8.50;;
73841;SDS011;62184;52.006;5.924;2023-06-22T00:03:27;8.75;;;7.60;;
73841;SDS011;62184;52.006;5.924;2023-06-22T00:05:56;10.38;;;8.65;;
73841;SDS011;62184;52.006;5.924;2023-06-22T00:08:23;10.15;;;8.75;;
73841;SDS011;62184;52.006;5.924;2023-06-22T00:10:49;10.63;;;9.25;;
73841;SDS011;62184;52.006;5.924;2023-06-22T00:13:16;9.63;;;8.43;;
73841;SDS011;62184;52.006;5.924;2023-06-22T00:15:43;9.70;;;8.55;;
73841;SDS011;62184;52.006;5.924;2023-06-22T00:18:10;11.25;;;8.93;;
73841;SDS011;62184;52.006;5.924;2023-06-22T00:20:37;12.93;;;8.83;;
73841;SDS011;62184;52.006;5.924;2023-06-22T00:23:06;10.77;;;8.88;;
73841;SDS011;62184;52.006;5.924;2023-06-22T00:25:33;11.88;;;8.93;;
73841;SDS011;62184;52.006;5.924;2023-06-22T00:28:01;10.90;;;8.48;;
73841;SDS011;62184;52.006;5.924;2023-06-22T00:30:28;10.60;;;8.13;;
73841;SDS011;62184;52.006;5.924;2023-06-22T00:32:55;10.50;;;8.30;;
73841;SDS011;62184;52.006;5.924;2023-06-22T00:35:21;10.80;;;9.10;;
73841;SDS011;62184;52.006;5.924;2023-06-22T00:37:48;11.50;;;9.52;;
73841;SDS011;62184;52.006;5.924;2023-06-22T00:40:17;12.43;;;9.32;;
73841;SDS011;62184;52.006;5.924;2023-06-22T00:42:43;10.85;;;9.30;;
73841;SDS011;62184;52.006;5.924;2023-06-22T00:45:10;11.57;;;9.30;;
73841;SDS011;62184;52.006;5.924;2023-06-22T00:47:36;11.95;;;9.38;;
73841;SDS011;62184;52.006;5.924;2023-06-22T00:50:04;11.95;;;9.70;;
73841;SDS011;62184;52.006;5.924;2023-06-22T00:52:33;12.43;;;9.68;;
73841;SDS011;62184;52.006;5.924;2023-06-22T00:54:59;11.57;;;9.55;;
73841;SDS011;62184;52.006;5.924;2023-06-22T00:57:31;11.63;;;9.27;;
73841;SDS011;62184;52.006;5.924;2023-06-22T00:59:58;11.35;;;9.27;;
73841;SDS011;62184;52.006;5.924;2023-06-22T01:02:24;13.90;;;9.20;;
73841;SDS011;62184;52.006;5.924;2023-06-22T01:04:51;11.10;;;9.10;;
73841;SDS011;62184;52.006;5.924;2023-06-22T01:07:19;10.43;;;8.77;;
73841;SDS011;62184;52.006;5.924;2023-06-22T01:09:57;13.47;;;9.20;;
73841;SDS011;62184;52.006;5.924;2023-06-22T01:12:38;11.20;;;9.10;;
73841;SDS011;62184;52.006;5.924;2023-06-22T01:15:10;10.18;;;8.30;;
73841;SDS011;62184;52.006;5.924;2023-06-22T01:17:44;10.45;;;8.57;;
73841;SDS011;62184;52.006;5.924;2023-06-22T01:20:14;9.75;;;8.60;;
73841;SDS011;62184;52.006;5.924;2023-06-22T01:22:45;10.00;;;8.10;;
73841;SDS011;62184;52.006;5.924;2023-06-22T01:25:32;11.52;;;8.43;;
73841;SDS011;62184;52.006;5.924;2023-06-22T01:28:17;10.38;;;8.45;;
73841;SDS011;62184;52.006;5.924;2023-06-22T01:31:01;11.70;;;9.18;;
73841;SDS011;62184;52.006;5.924;2023-06-22T01:33:29;9.98;;;8.80;;
73841;SDS011;62184;52.006;5.924;2023-06-22T01:35:59;12.07;;;9.48;;
73841;SDS011;62184;52.006;5.924;2023-06-22T01:38:27;10.30;;;8.65;;
73841;SDS011;62184;52.006;5.924;2023-06-22T01:40:55;12.45;;;9.13;;
73841;SDS011;62184;52.006;5.924;2023-06-22T01:43:24;12.43;;;10.00;;
73841;SDS011;62184;52.006;5.924;2023-06-22T01:45:55;12.77;;;10.93;;
73841;SDS011;62184;52.006;5.924;2023-06-22T01:48:25;13.27;;;10.68;;
73841;SDS011;62184;52.006;5.924;2023-06-22T01:50:52;12.57;;;10.05;;
73841;SDS011;62184;52.006;5.924;2023-06-22T01:53:20;11.02;;;9.77;;
73841;SDS011;62184;52.006;5.924;2023-06-22T01:55:46;13.02;;;10.45;;
73841;SDS011;62184;52.006;5.924;2023-06-22T01:58:13;14.00;;;11.43;;
73841;SDS011;62184;52.006;5.924;2023-06-22T02:00:40;14.88;;;11.40;;
73841;SDS011;62184;52.006;5.924;2023-06-22T02:03:17;14.68;;;11.63;;
73841;SDS011;62184;52.006;5.924;2023-06-22T02:05:49;14.50;;;11.33;;
73841;SDS011;62184;52.006;5.924;2023-06-22T02:08:22;13.52;;;10.88;;
73841;SDS011;62184;52.006;5.924;2023-06-22T02:10:54;14.33;;;11.40;;
73841;SDS011;62184;52.006;5.924;2023-06-22T02:13:23;14.30;;;11.00;;
73841;SDS011;62184;52.006;5.924;2023-06-22T02:15:51;15.25;;;11.75;;
73841;SDS011;62184;52.006;5.924;2023-06-22T02:18:20;13.93;;;11.57;;
73841;SDS011;62184;52.006;5.924;2023-06-22T02:20:47;14.50;;;11.23;;
73841;SDS011;62184;52.006;5.924;2023-06-22T02:23:13;14.20;;;11.40;;
73841;SDS011;62184;52.006;5.924;2023-06-22T02:25:40;13.50;;;11.65;;
73841;SDS011;62184;52.006;5.924;2023-06-22T02:28:07;14.20;;;11.43;;
73841;SDS011;62184;52.006;5.924;2023-06-22T02:30:33;15.47;;;11.17;;
73841;SDS011;62184;52.006;5.924;2023-06-22T02:33:00;15.25;;;12.27;;
73841;SDS011;62184;52.006;5.924;2023-06-22T02:35:29;13.25;;;11.05;;
73841;SDS011;62184;52.006;5.924;2023-06-22T02:37:56;14.55;;;11.52;;
73841;SDS011;62184;52.006;5.924;2023-06-22T02:40:22;15.45;;;12.55;;
73841;SDS011;62184;52.006;5.924;2023-06-22T02:42:49;15.07;;;12.17;;
73841;SDS011;62184;52.006;5.924;2023-06-22T02:45:15;15.57;;;13.02;;
73841;SDS011;62184;52.006;5.924;2023-06-22T02:47:41;16.23;;;13.02;;
73841;SDS011;62184;52.006;5.924;2023-06-22T02:50:08;15.70;;;12.32;;
73841;SDS011;62184;52.006;5.924;2023-06-22T02:52:38;15.10;;;12.00;;
73841;SDS011;62184;52.006;5.924;2023-06-22T02:55:05;14.40;;;11.90;;
73841;SDS011;62184;52.006;5.924;2023-06-22T02:57:33;17.88;;;12.90;;
73841;SDS011;62184;52.006;5.924;2023-06-22T03:00:01;15.60;;;12.87;;
73841;SDS011;62184;52.006;5.924;2023-06-22T03:02:30;15.82;;;12.52;;
73841;SDS011;62184;52.006;5.924;2023-06-22T03:04:56;14.57;;;11.97;;
73841;SDS011;62184;52.006;5.924;2023-06-22T03:07:23;16.73;;;13.10;;
73841;SDS011;62184;52.006;5.924;2023-06-22T03:09:52;14.85;;;12.32;;
73841;SDS011;62184;52.006;5.924;2023-06-22T03:12:18;17.70;;;14.18;;
73841;SDS011;62184;52.006;5.924;2023-06-22T03:14:45;17.83;;;14.23;;
73841;SDS011;62184;52.006;5.924;2023-06-22T03:17:11;17.52;;;13.90;;
73841;SDS011;62184;52.006;5.924;2023-06-22T03:19:38;18.88;;;14.57;;
73841;SDS011;62184;52.006;5.924;2023-06-22T03:22:04;19.00;;;14.50;;
73841;SDS011;62184;52.006;5.924;2023-06-22T03:24:31;18.60;;;15.02;;
73841;SDS011;62184;52.006;5.924;2023-06-22T03:27:00;18.80;;;14.95;;
73841;SDS011;62184;52.006;5.924;2023-06-22T03:29:26;17.52;;;14.27;;
73841;SDS011;62184;52.006;5.924;2023-06-22T03:31:53;16.85;;;13.65;;
73841;SDS011;62184;52.006;5.924;2023-06-22T03:34:19;19.48;;;15.77;;
73841;SDS011;62184;52.006;5.924;2023-06-22T03:36:45;18.52;;;14.73;;
73841;SDS011;62184;52.006;5.924;2023-06-22T03:39:12;18.37;;;14.70;;
73841;SDS011;62184;52.006;5.924;2023-06-22T03:41:38;18.70;;;14.93;;
73841;SDS011;62184;52.006;5.924;2023-06-22T03:44:07;22.48;;;17.52;;
73841;SDS011;62184;52.006;5.924;2023-06-22T03:46:34;22.35;;;16.75;;
73841;SDS011;62184;52.006;5.924;2023-06-22T03:49:00;21.88;;;17.08;;
73841;SDS011;62184;52.006;5.924;2023-06-22T03:51:27;23.88;;;17.33;;
73841;SDS011;62184;52.006;5.924;2023-06-22T03:53:53;22.83;;;17.58;;
73841;SDS011;62184;52.006;5.924;2023-06-22T03:56:20;20.97;;;16.80;;
73841;SDS011;62184;52.006;5.924;2023-06-22T03:58:46;24.10;;;18.23;;
73841;SDS011;62184;52.006;5.924;2023-06-22T04:01:15;25.13;;;18.90;;
73841;SDS011;62184;52.006;5.924;2023-06-22T04:03:42;26.58;;;20.75;;
73841;SDS011;62184;52.006;5.924;2023-06-22T04:06:09;25.08;;;19.20;;
73841;SDS011;62184;52.006;5.924;2023-06-22T04:08:35;27.53;;;20.57;;
73841;SDS011;62184;52.006;5.924;2023-06-22T04:11:02;27.50;;;20.95;;
73841;SDS011;62184;52.006;5.924;2023-06-22T04:13:28;29.17;;;21.50;;
73841;SDS011;62184;52.006;5.924;2023-06-22T04:15:54;26.60;;;20.60;;
73841;SDS011;62184;52.006;5.924;2023-06-22T04:18:24;28.65;;;22.35;;
73841;SDS011;62184;52.006;5.924;2023-06-22T04:20:50;28.48;;;21.63;;
73841;SDS011;62184;52.006;5.924;2023-06-22T04:23:16;29.35;;;22.25;;
73841;SDS011;62184;52.006;5.924;2023-06-22T04:25:43;30.07;;;21.73;;
73841;SDS011;62184;52.006;5.924;2023-06-22T04:28:10;28.60;;;22.50;;
73841;SDS011;62184;52.006;5.924;2023-06-22T04:30:36;29.85;;;22.80;;
73841;SDS011;62184;52.006;5.924;2023-06-22T04:33:02;32.17;;;23.38;;
73841;SDS011;62184;52.006;5.924;2023-06-22T04:35:32;30.60;;;23.03;;
73841;SDS011;62184;52.006;5.924;2023-06-22T04:37:58;34.20;;;25.10;;
73841;SDS011;62184;52.006;5.924;2023-06-22T04:40:25;31.05;;;24.13;;
73841;SDS011;62184;52.006;5.924;2023-06-22T04:42:51;31.25;;;24.73;;
73841;SDS011;62184;52.006;5.924;2023-06-22T04:45:19;33.30;;;24.73;;
73841;SDS011;62184;52.006;5.924;2023-06-22T04:47:46;32.45;;;25.10;;
73841;SDS011;62184;52.006;5.924;2023-06-22T04:50:13;31.23;;;24.90;;
73841;SDS011;62184;52.006;5.924;2023-06-22T04:52:42;31.17;;;24.58;;
73841;SDS011;62184;52.006;5.924;2023-06-22T04:55:08;34.10;;;26.03;;
73841;SDS011;62184;52.006;5.924;2023-06-22T04:57:35;32.53;;;26.30;;
73841;SDS011;62184;52.006;5.924;2023-06-22T05:00:01;32.17;;;25.50;;
73841;SDS011;62184;52.006;5.924;2023-06-22T05:02:29;31.88;;;25.17;;
73841;SDS011;62184;52.006;5.924;2023-06-22T05:04:55;33.13;;;25.25;;
73841;SDS011;62184;52.006;5.924;2023-06-22T05:07:22;32.10;;;24.70;;
73841;SDS011;62184;52.006;5.924;2023-06-22T05:09:51;29.63;;;24.42;;
73841;SDS011;62184;52.006;5.924;2023-06-22T05:12:17;31.27;;;25.55;;
73841;SDS011;62184;52.006;5.924;2023-06-22T05:14:44;31.33;;;24.83;;
73841;SDS011;62184;52.006;5.924;2023-06-22T05:17:10;29.40;;;24.65;;
73841;SDS011;62184;52.006;5.924;2023-06-22T05:19:37;29.20;;;23.70;;
73841;SDS011;62184;52.006;5.924;2023-06-22T05:22:03;31.13;;;25.05;;
73841;SDS011;62184;52.006;5.924;2023-06-22T05:24:30;29.58;;;23.83;;
73841;SDS011;62184;52.006;5.924;2023-06-22T05:26:59;28.63;;;23.57;;
73841;SDS011;62184;52.006;5.924;2023-06-22T05:29:26;29.95;;;24.33;;
73841;SDS011;62184;52.006;5.924;2023-06-22T05:31:52;32.33;;;24.63;;
73841;SDS011;62184;52.006;5.924;2023-06-22T05:34:19;28.52;;;24.02;;
73841;SDS011;62184;52.006;5.924;2023-06-22T05:36:45;29.02;;;23.75;;
73841;SDS011;62184;52.006;5.924;2023-06-22T05:39:12;29.73;;;25.08;;
73841;SDS011;62184;52.006;5.924;2023-06-22T05:41:40;28.42;;;24.05;;
73841;SDS011;62184;52.006;5.924;2023-06-22T05:44:10;27.73;;;22.92;;
73841;SDS011;62184;52.006;5.924;2023-06-22T05:46:36;29.50;;;24.42;;
73841;SDS011;62184;52.006;5.924;2023-06-22T05:49:05;28.20;;;24.00;;
73841;SDS011;62184;52.006;5.924;2023-06-22T05:51:31;28.23;;;23.07;;
73841;SDS011;62184;52.006;5.924;2023-06-22T05:53:57;26.40;;;22.38;;
73841;SDS011;62184;52.006;5.924;2023-06-22T05:56:24;28.30;;;22.80;;
73841;SDS011;62184;52.006;5.924;2023-06-22T05:58:50;26.33;;;21.98;;
73841;SDS011;62184;52.006;5.924;2023-06-22T06:01:20;27.80;;;21.85;;
73841;SDS011;62184;52.006;5.924;2023-06-22T06:03:46;25.77;;;21.58;;
73841;SDS011;62184;52.006;5.924;2023-06-22T06:06:12;26.05;;;22.35;;
73841;SDS011;62184;52.006;5.924;2023-06-22T06:08:39;24.33;;;20.97;;
73841;SDS011;62184;52.006;5.924;2023-06-22T06:11:06;26.10;;;20.77;;
73841;SDS011;62184;52.006;5.924;2023-06-22T06:13:33;24.33;;;20.63;;
73841;SDS011;62184;52.006;5.924;2023-06-22T06:15:59;23.23;;;20.67;;
73841;SDS011;62184;52.006;5.924;2023-06-22T06:18:28;24.67;;;21.00;;
73841;SDS011;62184;52.006;5.924;2023-06-22T06:20:55;23.02;;;19.83;;
73841;SDS011;62184;52.006;5.924;2023-06-22T06:23:21;23.80;;;20.47;;
73841;SDS011;62184;52.006;5.924;2023-06-22T06:25:48;23.60;;;19.98;;
73841;SDS011;62184;52.006;5.924;2023-06-22T06:28:14;22.73;;;20.13;;
73841;SDS011;62184;52.006;5.924;2023-06-22T06:30:41;23.05;;;19.40;;
73841;SDS011;62184;52.006;5.924;2023-06-22T06:33:07;23.08;;;19.50;;
73841;SDS011;62184;52.006;5.924;2023-06-22T06:35:37;20.85;;;18.50;;
73841;SDS011;62184;52.006;5.924;2023-06-22T06:38:03;22.60;;;19.35;;
73841;SDS011;62184;52.006;5.924;2023-06-22T06:40:30;21.27;;;18.35;;
73841;SDS011;62184;52.006;5.924;2023-06-22T06:42:57;21.25;;;18.75;;
73841;SDS011;62184;52.006;5.924;2023-06-22T06:45:23;21.30;;;18.52;;
73841;SDS011;62184;52.006;5.924;2023-06-22T06:47:51;21.52;;;18.50;;
73841;SDS011;62184;52.006;5.924;2023-06-22T06:50:18;20.23;;;18.02;;
73841;SDS011;62184;52.006;5.924;2023-06-22T06:52:47;20.17;;;18.05;;
73841;SDS011;62184;52.006;5.924;2023-06-22T06:55:14;18.90;;;16.88;;
73841;SDS011;62184;52.006;5.924;2023-06-22T06:57:41;18.65;;;16.60;;
73841;SDS011;62184;52.006;5.924;2023-06-22T07:00:09;18.23;;;16.30;;
73841;SDS011;62184;52.006;5.924;2023-06-22T07:02:38;18.70;;;16.30;;
73841;SDS011;62184;52.006;5.924;2023-06-22T07:05:06;19.15;;;16.77;;
73841;SDS011;62184;52.006;5.924;2023-06-22T07:07:33;19.23;;;16.85;;
73841;SDS011;62184;52.006;5.924;2023-06-22T07:10:03;18.83;;;16.83;;
73841;SDS011;62184;52.006;5.924;2023-06-22T07:12:32;18.88;;;16.77;;
73841;SDS011;62184;52.006;5.924;2023-06-22T07:15:02;19.13;;;17.13;;
73841;SDS011;62184;52.006;5.924;2023-06-22T07:17:29;19.07;;;17.07;;
73841;SDS011;62184;52.006;5.924;2023-06-22T07:19:56;18.67;;;16.75;;
73841;SDS011;62184;52.006;5.924;2023-06-22T07:22:22;18.95;;;16.92;;
73841;SDS011;62184;52.006;5.924;2023-06-22T07:24:49;19.02;;;16.92;;
73841;SDS011;62184;52.006;5.924;2023-06-22T07:27:18;19.43;;;16.83;;
73841;SDS011;62184;52.006;5.924;2023-06-22T07:29:45;18.63;;;16.67;;
73841;SDS011;62184;52.006;5.924;2023-06-22T07:32:11;19.25;;;17.25;;
73841;SDS011;62184;52.006;5.924;2023-06-22T07:34:38;18.90;;;17.00;;
73841;SDS011;62184;52.006;5.924;2023-06-22T07:37:05;18.77;;;16.77;;
73841;SDS011;62184;52.006;5.924;2023-06-22T07:39:31;18.17;;;16.17;;
73841;SDS011;62184;52.006;5.924;2023-06-22T07:41:58;18.02;;;16.13;;
73841;SDS011;62184;52.006;5.924;2023-06-22T07:44:27;17.88;;;16.00;;
73841;SDS011;62184;52.006;5.924;2023-06-22T07:46:53;17.40;;;15.60;;
73841;SDS011;62184;52.006;5.924;2023-06-22T07:49:20;17.05;;;15.32;;
73841;SDS011;62184;52.006;5.924;2023-06-22T07:51:46;17.58;;;15.55;;
73841;SDS011;62184;52.006;5.924;2023-06-22T07:54:13;17.15;;;15.02;;
73841;SDS011;62184;52.006;5.924;2023-06-22T07:56:39;17.40;;;15.50;;
73841;SDS011;62184;52.006;5.924;2023-06-22T07:59:06;16.80;;;15.00;;
73841;SDS011;62184;52.006;5.924;2023-06-22T08:01:35;16.48;;;14.77;;
73841;SDS011;62184;52.006;5.924;2023-06-22T08:04:01;16.92;;;15.10;;
73841;SDS011;62184;52.006;5.924;2023-06-22T08:06:29;16.73;;;15.02;;
73841;SDS011;62184;52.006;5.924;2023-06-22T08:08:56;16.85;;;14.85;;
73841;SDS011;62184;52.006;5.924;2023-06-22T08:11:22;15.93;;;14.23;;
73841;SDS011;62184;52.006;5.924;2023-06-22T08:13:49;16.52;;;14.60;;
73841;SDS011;62184;52.006;5.924;2023-06-22T08:16:15;16.25;;;14.43;;
73841;SDS011;62184;52.006;5.924;2023-06-22T08:18:45;16.00;;;14.40;;
73841;SDS011;62184;52.006;5.924;2023-06-22T08:21:11;16.75;;;15.05;;
73841;SDS011;62184;52.006;5.924;2023-06-22T08:23:38;16.90;;;15.20;;
73841;SDS011;62184;52.006;5.924;2023-06-22T08:26:04;16.90;;;15.20;;
73841;SDS011;62184;52.006;5.924;2023-06-22T08:28:31;16.38;;;14.55;;
73841;SDS011;62184;52.006;5.924;2023-06-22T08:30:57;16.20;;;14.60;;
73841;SDS011;62184;52.006;5.924;2023-06-22T08:33:23;16.50;;;14.75;;
73841;SDS011;62184;52.006;5.924;2023-06-22T08:35:53;16.48;;;14.30;;
73841;SDS011;62184;52.006;5.924;2023-06-22T08:38:19;15.85;;;14.35;;
73841;SDS011;62184;52.006;5.924;2023-06-22T08:40:46;16.13;;;14.43;;
73841;SDS011;62184;52.006;5.924;2023-06-22T08:43:12;15.45;;;13.95;;
73841;SDS011;62184;52.006;5.924;2023-06-22T08:45:39;15.03;;;13.53;;
73841;SDS011;62184;52.006;5.924;2023-06-22T08:48:06;15.40;;;13.80;;
73841;SDS011;62184;52.006;5.924;2023-06-22T08:50:32;15.70;;;14.20;;
73841;SDS011;62184;52.006;5.924;2023-06-22T08:53:01;14.18;;;12.77;;
73841;SDS011;62184;52.006;5.924;2023-06-22T08:55:28;15.10;;;13.48;;
73841;SDS011;62184;52.006;5.924;2023-06-22T08:57:54;13.70;;;12.40;;
73841;SDS011;62184;52.006;5.924;2023-06-22T09:00:21;14.90;;;12.50;;
73841;SDS011;62184;52.006;5.924;2023-06-22T09:02:47;13.05;;;11.70;;
73841;SDS011;62184;52.006;5.924;2023-06-22T09:05:14;13.00;;;11.70;;
73841;SDS011;62184;52.006;5.924;2023-06-22T09:07:41;12.43;;;11.23;;
73841;SDS011;62184;52.006;5.924;2023-06-22T09:10:10;12.27;;;11.07;;
73841;SDS011;62184;52.006;5.924;2023-06-22T09:12:37;12.93;;;11.70;;
73841;SDS011;62184;52.006;5.924;2023-06-22T09:15:05;12.70;;;11.40;;
73841;SDS011;62184;52.006;5.924;2023-06-22T09:17:32;12.00;;;10.90;;
73841;SDS011;62184;52.006;5.924;2023-06-22T09:19:59;13.43;;;11.73;;
73841;SDS011;62184;52.006;5.924;2023-06-22T09:22:25;12.17;;;10.93;;
73841;SDS011;62184;52.006;5.924;2023-06-22T09:24:53;11.38;;;10.25;;
73841;SDS011;62184;52.006;5.924;2023-06-22T09:27:22;11.68;;;10.48;;
73841;SDS011;62184;52.006;5.924;2023-06-22T09:29:48;11.45;;;10.30;;
73841;SDS011;62184;52.006;5.924;2023-06-22T09:32:15;11.52;;;10.27;;
73841;SDS011;62184;52.006;5.924;2023-06-22T09:34:42;11.43;;;10.23;;
73841;SDS011;62184;52.006;5.924;2023-06-22T09:37:08;11.85;;;10.23;;
73841;SDS011;62184;52.006;5.924;2023-06-22T09:39:35;11.40;;;10.20;;
73841;SDS011;62184;52.006;5.924;2023-06-22T09:42:01;10.88;;;9.63;;
73841;SDS011;62184;52.006;5.924;2023-06-22T09:44:31;11.50;;;10.30;;
73841;SDS011;62184;52.006;5.924;2023-06-22T09:46:57;11.35;;;10.20;;
73841;SDS011;62184;52.006;5.924;2023-06-22T09:49:24;10.93;;;9.80;;
73841;SDS011;62184;52.006;5.924;2023-06-22T09:51:51;11.15;;;9.75;;
73841;SDS011;62184;52.006;5.924;2023-06-22T09:54:17;10.93;;;9.43;;
73841;SDS011;62184;52.006;5.924;2023-06-22T09:56:44;11.02;;;9.45;;
73841;SDS011;62184;52.006;5.924;2023-06-22T09:59:10;10.30;;;9.30;;
73841;SDS011;62184;52.006;5.924;2023-06-22T10:01:39;10.77;;;9.73;;
73841;SDS011;62184;52.006;5.924;2023-06-22T10:04:06;10.65;;;9.25;;
73841;SDS011;62184;52.006;5.924;2023-06-22T10:06:32;10.43;;;8.63;;
73841;SDS011;62184;52.006;5.924;2023-06-22T10:08:59;10.70;;;9.60;;
73841;SDS011;62184;52.006;5.924;2023-06-22T10:11:25;11.60;;;9.70;;
73841;SDS011;62184;52.006;5.924;2023-06-22T10:13:52;10.40;;;9.30;;
73841;SDS011;62184;52.006;5.924;2023-06-22T10:16:18;9.73;;;8.73;;
73841;SDS011;62184;52.006;5.924;2023-06-22T10:18:47;9.95;;;8.95;;
73841;SDS011;62184;52.006;5.924;2023-06-22T10:21:13;10.20;;;9.00;;
73841;SDS011;62184;52.006;5.924;2023-06-22T10:23:40;10.82;;;9.73;;
73841;SDS011;62184;52.006;5.924;2023-06-22T10:26:06;10.40;;;9.40;;
73841;SDS011;62184;52.006;5.924;2023-06-22T10:28:33;10.77;;;9.07;;
73841;SDS011;62184;52.006;5.924;2023-06-22T10:30:59;10.47;;;9.07;;
73841;SDS011;62184;52.006;5.924;2023-06-22T10:33:26;11.02;;;9.80;;
73841;SDS011;62184;52.006;5.924;2023-06-22T10:35:55;10.63;;;9.48;;
73841;SDS011;62184;52.006;5.924;2023-06-22T10:38:21;10.95;;;9.68;;
73841;SDS011;62184;52.006;5.924;2023-06-22T10:40:48;11.88;;;10.60;;
73841;SDS011;62184;52.006;5.924;2023-06-22T10:43:14;10.93;;;9.83;;
73841;SDS011;62184;52.006;5.924;2023-06-22T10:45:41;11.40;;;9.93;;
73841;SDS011;62184;52.006;5.924;2023-06-22T10:48:07;11.15;;;9.93;;
73841;SDS011;62184;52.006;5.924;2023-06-22T10:50:34;11.05;;;9.82;;
73841;SDS011;62184;52.006;5.924;2023-06-22T10:53:03;11.13;;;9.98;;
73841;SDS011;62184;52.006;5.924;2023-06-22T10:55:29;10.27;;;9.17;;
73841;SDS011;62184;52.006;5.924;2023-06-22T10:57:56;10.65;;;9.55;;
73841;SDS011;62184;52.006;5.924;2023-06-22T11:00:22;10.88;;;9.77;;
73841;SDS011;62184;52.006;5.924;2023-06-22T11:02:49;10.63;;;9.53;;
73841;SDS011;62184;52.006;5.924;2023-06-22T11:05:16;11.73;;;10.30;;
73841;SDS011;62184;52.006;5.924;2023-06-22T11:07:43;11.23;;;10.13;;
73841;SDS011;62184;52.006;5.924;2023-06-22T11:10:12;10.90;;;9.80;;
73841;SDS011;62184;52.006;5.924;2023-06-22T11:12:39;11.23;;;10.07;;
73841;SDS011;62184;52.006;5.924;2023-06-22T11:15:06;10.88;;;9.77;;
73841;SDS011;62184;52.006;5.924;2023-06-22T11:17:34;11.25;;;10.13;;
73841;SDS011;62184;52.006;5.924;2023-06-22T11:20:01;11.05;;;9.93;;
73841;SDS011;62184;52.006;5.924;2023-06-22T11:22:28;12.63;;;11.32;;
73841;SDS011;62184;52.006;5.924;2023-06-22T11:24:54;12.77;;;11.38;;
73841;SDS011;62184;52.006;5.924;2023-06-22T11:27:23;13.23;;;11.80;;
73841;SDS011;62184;52.006;5.924;2023-06-22T11:29:50;14.10;;;11.50;;
73841;SDS011;62184;52.006;5.924;2023-06-22T11:32:16;13.50;;;12.10;;
73841;SDS011;62184;52.006;5.924;2023-06-22T11:34:43;14.85;;;13.25;;
73841;SDS011;62184;52.006;5.924;2023-06-22T11:37:09;15.85;;;14.23;;
73841;SDS011;62184;52.006;5.924;2023-06-22T11:39:36;17.73;;;16.05;;
73841;SDS011;62184;52.006;5.924;2023-06-22T11:42:02;18.87;;;17.27;;
73841;SDS011;62184;52.006;5.924;2023-06-22T11:44:32;18.77;;;17.10;;
73841;SDS011;62184;52.006;5.924;2023-06-22T11:46:58;19.75;;;17.95;;
73841;SDS011;62184;52.006;5.924;2023-06-22T11:49:25;19.50;;;17.73;;
73841;SDS011;62184;52.006;5.924;2023-06-22T11:51:51;19.10;;;17.40;;
73841;SDS011;62184;52.006;5.924;2023-06-22T11:54:17;20.45;;;18.55;;
73841;SDS011;62184;52.006;5.924;2023-06-22T11:56:44;21.52;;;19.42;;
73841;SDS011;62184;52.006;5.924;2023-06-22T11:59:11;23.65;;;21.73;;
73841;SDS011;62184;52.006;5.924;2023-06-22T12:01:40;26.60;;;24.40;;
73841;SDS011;62184;52.006;5.924;2023-06-22T12:04:06;26.10;;;23.80;;
73841;SDS011;62184;52.006;5.924;2023-06-22T12:06:33;26.77;;;24.27;;
73841;SDS011;62184;52.006;5.924;2023-06-22T12:09:01;26.70;;;24.20;;
73841;SDS011;62184;52.006;5.924;2023-06-22T12:11:27;29.02;;;26.33;;
73841;SDS011;62184;52.006;5.924;2023-06-22T12:13:54;29.55;;;26.88;;
73841;SDS011;62184;52.006;5.924;2023-06-22T12:16:20;30.10;;;27.30;;
73841;SDS011;62184;52.006;5.924;2023-06-22T12:18:49;32.38;;;29.17;;
73841;SDS011;62184;52.006;5.924;2023-06-22T12:21:16;35.03;;;31.53;;
73841;SDS011;62184;52.006;5.924;2023-06-22T12:23:42;36.63;;;32.80;;
73841;SDS011;62184;52.006;5.924;2023-06-22T12:26:09;36.20;;;32.03;;
73841;SDS011;62184;52.006;5.924;2023-06-22T12:28:35;41.72;;;34.05;;
73841;SDS011;62184;52.006;5.924;2023-06-22T12:31:02;42.70;;;35.73;;
73841;SDS011;62184;52.006;5.924;2023-06-22T12:33:28;41.50;;;33.72;;
73841;SDS011;62184;52.006;5.924;2023-06-22T12:35:58;42.20;;;34.10;;
73841;SDS011;62184;52.006;5.924;2023-06-22T12:38:24;40.85;;;32.88;;
73841;SDS011;62184;52.006;5.924;2023-06-22T12:40:51;38.95;;;32.10;;
73841;SDS011;62184;52.006;5.924;2023-06-22T12:43:17;38.37;;;31.67;;
73841;SDS011;62184;52.006;5.924;2023-06-22T12:45:44;37.58;;;30.40;;
73841;SDS011;62184;52.006;5.924;2023-06-22T12:48:11;37.97;;;30.20;;
73841;SDS011;62184;52.006;5.924;2023-06-22T12:50:37;39.27;;;30.50;;
73841;SDS011;62184;52.006;5.924;2023-06-22T12:53:06;47.17;;;34.03;;
73841;SDS011;62184;52.006;5.924;2023-06-22T12:55:33;43.00;;;33.30;;
73841;SDS011;62184;52.006;5.924;2023-06-22T12:57:59;40.03;;;29.52;;
73841;SDS011;62184;52.006;5.924;2023-06-22T13:00:25;37.53;;;28.00;;
73841;SDS011;62184;52.006;5.924;2023-06-22T13:02:52;41.00;;;31.02;;
73841;SDS011;62184;52.006;5.924;2023-06-22T13:05:18;6.05;;;5.53;;
73841;SDS011;62184;52.006;5.924;2023-06-22T13:07:45;5.40;;;4.90;;
73841;SDS011;62184;52.006;5.924;2023-06-22T13:10:14;4.85;;;4.45;;
73841;SDS011;62184;52.006;5.924;2023-06-22T13:12:41;4.80;;;4.40;;
73841;SDS011;62184;52.006;5.924;2023-06-22T13:15:07;4.20;;;3.80;;
73841;SDS011;62184;52.006;5.924;2023-06-22T13:17:34;4.80;;;3.65;;
73841;SDS011;62184;52.006;5.924;2023-06-22T13:20:01;3.70;;;3.08;;
73841;SDS011;62184;52.006;5.924;2023-06-22T13:22:31;3.80;;;3.33;;
73841;SDS011;62184;52.006;5.924;2023-06-22T13:24:59;3.95;;;3.50;;
73841;SDS011;62184;52.006;5.924;2023-06-22T13:27:28;3.70;;;3.03;;
73841;SDS011;62184;52.006;5.924;2023-06-22T13:29:55;3.63;;;2.85;;
73841;SDS011;62184;52.006;5.924;2023-06-22T13:32:21;3.90;;;3.50;;
73841;SDS011;62184;52.006;5.924;2023-06-22T13:34:48;4.10;;;3.70;;
73841;SDS011;62184;52.006;5.924;2023-06-22T13:37:14;4.03;;;3.63;;
73841;SDS011;62184;52.006;5.924;2023-06-22T13:39:41;4.00;;;3.60;;
73841;SDS011;62184;52.006;5.924;2023-06-22T13:42:08;4.47;;;4.07;;
73841;SDS011;62184;52.006;5.924;2023-06-22T13:44:37;4.22;;;3.83;;
73841;SDS011;62184;52.006;5.924;2023-06-22T13:47:04;4.50;;;4.10;;
73841;SDS011;62184;52.006;5.924;2023-06-22T13:49:34;4.30;;;3.90;;
73841;SDS011;62184;52.006;5.924;2023-06-22T13:52:01;4.35;;;3.95;;
73841;SDS011;62184;52.006;5.924;2023-06-22T13:54:27;4.53;;;4.13;;
73841;SDS011;62184;52.006;5.924;2023-06-22T13:56:54;4.30;;;3.90;;
73841;SDS011;62184;52.006;5.924;2023-06-22T13:59:21;4.50;;;3.80;;
73841;SDS011;62184;52.006;5.924;2023-06-22T14:01:50;4.70;;;3.60;;
73841;SDS011;62184;52.006;5.924;2023-06-22T14:04:17;3.90;;;3.42;;
73841;SDS011;62184;52.006;5.924;2023-06-22T14:06:43;4.25;;;3.85;;
73841;SDS011;62184;52.006;5.924;2023-06-22T14:09:10;4.83;;;4.33;;
73841;SDS011;62184;52.006;5.924;2023-06-22T14:11:36;4.15;;;3.75;;
73841;SDS011;62184;52.006;5.924;2023-06-22T14:14:02;3.90;;;3.40;;
73841;SDS011;62184;52.006;5.924;2023-06-22T14:16:29;4.55;;;3.72;;
73841;SDS011;62184;52.006;5.924;2023-06-22T14:18:58;3.70;;;3.30;;
73841;SDS011;62184;52.006;5.924;2023-06-22T14:21:25;3.80;;;3.30;;
73841;SDS011;62184;52.006;5.924;2023-06-22T14:23:52;4.10;;;3.70;;
73841;SDS011;62184;52.006;5.924;2023-06-22T14:26:18;4.13;;;3.72;;